Time;durP1;ratioP1;P1;durP2;ratioP2;P2;SDS_P1;SDS_P2;PMS_P1;PMS_P2;Temp;Humidity;BMP_temperature;BMP_pressure;BME280_temperature;BME280_humidity;BME280_pressure;Samples;Min_cycle;Max_cycle;Signal;HPM_P1;HPM_P2
2021/08/11 00:02:21;;;;;;;8.85;4.18;;;;;;;15.55;79.57;101524.03;5151634;27;20047;-79
2021/08/11 00:04:46;;;;;;;6.15;4.40;;;;;;;15.57;79.53;101516.94;5133903;27;20049;-78
2021/08/11 00:07:12;;;;;;;10.18;4.65;;;;;;;15.54;79.45;101515.31;5129991;27;20043;-79
2021/08/11 00:09:38;;;;;;;7.13;4.30;;;;;;;15.49;79.68;101512.88;5151825;27;20055;-79
2021/08/11 00:12:05;;;;;;;8.30;4.82;;;;;;;15.44;79.77;101522.75;5154882;27;20473;-80
2021/08/11 00:14:31;;;;;;;8.07;4.45;;;;;;;15.51;79.39;101523.31;5142724;27;20047;-80
2021/08/11 00:16:58;;;;;;;8.10;4.53;;;;;;;15.50;79.53;101525.13;5149762;27;20105;-78
2021/08/11 00:19:24;;;;;;;9.00;4.45;;;;;;;15.42;79.42;101502.72;5154280;27;20046;-79
2021/08/11 00:21:50;;;;;;;9.90;4.80;;;;;;;15.53;79.33;101522.31;5154674;27;20497;-80
2021/08/11 00:24:16;;;;;;;7.35;4.35;;;;;;;15.52;79.28;101504.81;5139699;27;20051;-77
2021/08/11 00:26:42;;;;;;;7.00;4.47;;;;;;;15.47;79.25;101491.03;5137826;27;20487;-77
2021/08/11 00:29:08;;;;;;;9.20;4.50;;;;;;;15.57;79.21;101503.78;5138372;27;20096;-77
2021/08/11 00:31:34;;;;;;;10.27;4.78;;;;;;;15.45;79.20;101487.63;5150427;27;20077;-77
2021/08/11 00:34:00;;;;;;;9.50;4.90;;;;;;;15.43;79.69;101515.78;5162656;27;20053;-78
2021/08/11 00:36:26;;;;;;;8.60;5.32;;;;;;;15.32;79.85;101500.50;5158554;27;20505;-78
2021/08/11 00:38:52;;;;;;;9.05;4.50;;;;;;;15.24;79.99;101501.75;5156229;27;20118;-78
2021/08/11 00:41:18;;;;;;;7.22;4.65;;;;;;;15.15;80.09;101489.88;5152164;27;20039;-77
2021/08/11 00:43:44;;;;;;;7.03;4.18;;;;;;;15.31;80.20;101509.31;5155709;27;20510;-79
2021/08/11 00:46:11;;;;;;;6.97;4.15;;;;;;;15.23;80.15;101505.31;5156138;27;20050;-79
2021/08/11 00:48:39;;;;;;;6.78;4.57;;;;;;;15.16;80.10;101481.06;5156114;27;20050;-77
2021/08/11 00:51:06;;;;;;;6.10;5.18;;;;;;;15.27;80.40;101496.34;5155962;27;20042;-78
2021/08/11 00:53:33;;;;;;;8.77;4.75;;;;;;;15.28;80.24;101496.31;5143744;27;20050;-79
2021/08/11 00:56:00;;;;;;;6.90;4.13;;;;;;;15.30;79.86;101491.81;5137090;27;20447;-78
2021/08/11 00:58:28;;;;;;;8.32;4.78;;;;;;;15.35;79.73;101499.50;5156352;27;20055;-77
2021/08/11 01:00:58;;;;;;;6.20;4.03;;;;;;;15.39;79.74;101485.25;5157437;27;20058;-78
2021/08/11 01:03:27;;;;;;;9.40;4.93;;;;;;;15.40;79.60;101489.59;5156673;27;20039;-76
2021/08/11 01:05:56;;;;;;;8.68;4.70;;;;;;;15.31;79.65;101493.50;5176307;27;20064;-77
2021/08/11 01:08:23;;;;;;;7.68;4.38;;;;;;;15.27;79.79;101489.34;5164883;27;20039;-78
2021/08/11 01:10:51;;;;;;;8.77;4.90;;;;;;;15.21;79.93;101490.44;5137702;27;20046;-79
2021/08/11 01:13:18;;;;;;;8.30;4.45;;;;;;;15.10;80.00;101479.56;5137064;27;20042;-78
2021/08/11 01:15:47;;;;;;;7.60;4.13;;;;;;;15.05;80.23;101490.28;5155642;27;20045;-79
2021/08/11 01:18:17;;;;;;;8.07;4.85;;;;;;;15.02;80.70;101492.19;5155614;27;20049;-77
2021/08/11 01:20:54;;;;;;;7.53;4.43;;;;;;;15.07;80.52;101503.34;5155757;27;20042;-78
2021/08/11 01:23:27;;;;;;;8.65;5.00;;;;;;;15.02;80.56;101500.91;5154578;27;20051;-77
2021/08/11 01:26:01;;;;;;;6.40;4.47;;;;;;;14.95;80.24;101478.47;5155103;27;20043;-77
2021/08/11 01:28:56;;;;;;;6.13;4.78;;;;;;;15.07;80.36;101494.63;5154075;27;20371;-77
2021/08/11 01:32:01;;;;;;;9.93;5.55;;;;;;;15.02;80.45;101498.28;5154322;27;20049;-79
2021/08/11 01:34:46;;;;;;;8.15;4.40;;;;;;;15.00;80.51;101507.19;5155622;27;20062;-78
2021/08/11 01:37:22;;;;;;;9.80;4.90;;;;;;;14.98;80.63;101499.38;5151231;27;20074;-79
2021/08/11 01:39:53;;;;;;;5.88;4.95;;;;;;;14.91;80.92;101502.34;5150592;27;20050;-79
2021/08/11 01:42:43;;;;;;;6.80;4.35;;;;;;;14.86;80.95;101508.63;5153778;27;20046;-79
2021/08/11 01:45:19;;;;;;;9.35;4.57;;;;;;;14.77;81.18;101490.66;5181499;27;20041;-79
2021/08/11 01:47:58;;;;;;;6.75;4.85;;;;;;;14.86;80.91;101497.28;5179496;27;20030;-77
2021/08/11 01:50:26;;;;;;;9.30;4.97;;;;;;;14.84;80.93;101507.00;5166118;27;20050;-77
2021/08/11 01:52:54;;;;;;;10.25;5.20;;;;;;;14.73;80.96;101489.06;5166680;27;20532;-77
2021/08/11 01:55:20;;;;;;;5.18;4.32;;;;;;;14.84;80.73;101484.22;5163322;27;20076;-77
2021/08/11 01:57:49;;;;;;;9.10;4.43;;;;;;;14.94;80.32;101492.53;5158937;27;20125;-76
2021/08/11 02:00:17;;;;;;;7.60;5.05;;;;;;;14.96;80.43;101497.72;5140895;27;20043;-78
2021/08/11 02:02:45;;;;;;;8.10;5.00;;;;;;;14.94;80.31;101494.31;5159458;27;20043;-77
2021/08/11 02:05:12;;;;;;;8.57;5.25;;;;;;;14.77;80.34;101464.38;5158815;27;20042;-78
2021/08/11 02:07:40;;;;;;;7.07;4.72;;;;;;;14.87;80.51;101478.78;5158549;27;20055;-78
2021/08/11 02:10:08;;;;;;;7.40;4.75;;;;;;;14.80;80.66;101473.88;5158427;27;20043;-77
2021/08/11 02:12:35;;;;;;;9.02;4.95;;;;;;;14.81;80.91;101481.69;5158078;27;20038;-78
2021/08/11 02:15:04;;;;;;;8.38;5.47;;;;;;;14.77;80.94;101492.41;5157655;27;20411;-78
2021/08/11 02:17:30;;;;;;;7.60;4.65;;;;;;;14.78;80.94;101495.00;5158086;27;20047;-78
2021/08/11 02:19:56;;;;;;;6.40;4.72;;;;;;;14.86;80.15;101489.38;5140725;27;20498;-78
2021/08/11 02:22:22;;;;;;;9.07;4.90;;;;;;;14.88;80.44;101485.75;5157960;27;20049;-77
2021/08/11 02:24:49;;;;;;;8.90;5.00;;;;;;;14.87;79.96;101480.59;5136694;27;20461;-77
2021/08/11 02:27:21;;;;;;;10.15;4.78;;;;;;;14.79;80.70;101469.53;5138280;27;20085;-78
2021/08/11 02:29:56;;;;;;;6.38;4.53;;;;;;;14.87;80.40;101478.78;5159060;27;20043;-78
2021/08/11 02:32:29;;;;;;;;;;;;;;;14.80;80.18;101481.78;5140723;27;20046;-79
2021/08/11 02:34:55;;;;;;;7.32;4.40;;;;;;;14.79;80.57;101491.41;5158540;27;19919;-78
2021/08/11 02:37:28;;;;;;;8.65;4.60;;;;;;;14.77;80.51;101477.50;5157994;27;20091;-78
2021/08/11 02:40:03;;;;;;;7.07;4.87;;;;;;;14.79;80.57;101493.19;5158107;27;20043;-79
2021/08/11 02:42:43;;;;;;;8.23;4.38;;;;;;;14.75;80.46;101481.97;5158429;27;20053;-79
2021/08/11 02:45:13;;;;;;;7.93;5.25;;;;;;;14.64;80.53;101468.41;5157913;27;20051;-78
2021/08/11 02:47:41;;;;;;;6.53;4.55;;;;;;;14.73;80.80;101489.91;5138918;27;20050;-78
2021/08/11 02:50:09;;;;;;;8.57;5.07;;;;;;;14.60;80.84;101469.44;5139735;27;20046;-78
2021/08/11 02:52:37;;;;;;;9.38;4.72;;;;;;;14.64;80.92;101481.56;5139410;27;20114;-78
2021/08/11 02:55:04;;;;;;;6.03;4.10;;;;;;;14.54;81.15;101481.94;5157113;27;20046;-77
2021/08/11 02:57:31;;;;;;;6.63;3.88;;;;;;;14.51;81.25;101484.69;5157948;27;20046;-79
2021/08/11 02:59:59;;;;;;;7.65;4.40;;;;;;;14.38;81.54;101479.09;5157366;27;20542;-79
2021/08/11 03:02:26;;;;;;;6.43;4.50;;;;;;;14.35;81.57;101484.47;5157548;27;20042;-78
2021/08/11 03:04:53;;;;;;;9.13;4.47;;;;;;;14.03;81.55;101457.75;5157613;27;20095;-77
2021/08/11 03:07:20;;;;;;;5.95;3.97;;;;;;;14.20;81.93;101477.22;5157236;27;20041;-77
2021/08/11 03:09:46;;;;;;;7.18;4.90;;;;;;;14.15;82.28;101485.28;5138920;27;20051;-77
2021/08/11 03:12:13;;;;;;;9.05;4.60;;;;;;;14.12;82.43;101487.19;5157793;27;20042;-78
2021/08/11 03:14:40;;;;;;;9.23;5.10;;;;;;;14.06;82.82;101490.91;5157442;27;20130;-77
2021/08/11 03:17:19;;;;;;;7.60;4.82;;;;;;;13.93;82.61;101469.56;5157151;27;20043;-77
2021/08/11 03:19:46;;;;;;;7.88;4.85;;;;;;;13.96;83.13;101494.81;5157282;27;20046;-78
2021/08/11 03:22:12;;;;;;;7.00;5.13;;;;;;;13.92;83.05;101488.84;5157258;27;20471;-77
2021/08/11 03:24:38;;;;;;;6.85;4.20;;;;;;;13.88;83.10;101493.34;5151512;27;20087;-77
2021/08/11 03:27:04;;;;;;;8.68;4.82;;;;;;;13.91;83.21;101487.13;5157348;27;20384;-76
2021/08/11 03:29:30;;;;;;;8.80;4.70;;;;;;;13.89;83.26;101487.19;5157050;27;20055;-78
2021/08/11 03:31:56;;;;;;;8.43;4.53;;;;;;;13.78;82.93;101476.28;5156518;27;20558;-77
2021/08/11 03:34:22;;;;;;;6.68;4.80;;;;;;;13.81;83.40;101481.38;5143215;27;20078;-77
2021/08/11 03:36:48;;;;;;;6.88;4.22;;;;;;;13.77;82.89;101457.03;5178026;27;20050;-79
2021/08/11 03:39:14;;;;;;;7.40;5.20;;;;;;;13.82;83.15;101482.22;5176639;27;20050;-77
2021/08/11 03:41:40;;;;;;;9.27;5.03;;;;;;;13.82;83.12;101484.84;5170324;27;20046;-78
2021/08/11 03:44:06;;;;;;;8.55;4.82;;;;;;;13.85;82.91;101488.22;5177736;27;20046;-77
2021/08/11 03:46:32;;;;;;;8.00;4.90;;;;;;;13.76;83.19;101464.97;5163718;27;20062;-77
2021/08/11 03:48:59;;;;;;;8.02;4.63;;;;;;;13.66;83.00;101448.75;5156749;27;20047;-77
2021/08/11 03:51:25;;;;;;;6.38;5.05;;;;;;;13.65;82.85;101449.66;5156867;27;20038;-78
2021/08/11 03:53:51;;;;;;;7.47;4.47;;;;;;;13.60;82.79;101434.09;5156736;27;20472;-78
2021/08/11 03:56:16;;;;;;;7.75;4.53;;;;;;;13.86;82.52;101468.09;5154713;27;20103;-77
2021/08/11 03:58:42;;;;;;;7.50;4.78;;;;;;;13.87;82.04;101468.03;5138655;27;20046;-79
2021/08/11 04:01:08;;;;;;;6.40;4.50;;;;;;;13.75;81.81;101444.88;5156222;27;20057;-77
2021/08/11 04:03:34;;;;;;;8.00;4.68;;;;;;;13.86;81.58;101465.47;5157051;27;20050;-77
2021/08/11 04:06:00;;;;;;;7.82;4.97;;;;;;;13.80;81.70;101455.22;5165094;27;20024;-78
2021/08/11 04:08:26;;;;;;;7.10;4.50;;;;;;;13.81;81.57;101463.00;5179182;27;20066;-77
2021/08/11 04:10:53;;;;;;;7.25;4.22;;;;;;;13.89;81.46;101462.69;5174367;27;20125;-77
2021/08/11 04:13:20;;;;;;;7.78;4.07;;;;;;;13.86;81.19;101454.97;5163443;27;20069;-77
2021/08/11 04:15:47;;;;;;;7.32;4.85;;;;;;;13.83;81.15;101449.81;5162290;27;20039;-77
2021/08/11 04:18:13;;;;;;;12.90;4.65;;;;;;;13.72;80.93;101439.75;5156935;27;20054;-78
2021/08/11 04:20:40;;;;;;;6.78;4.28;;;;;;;13.95;80.60;101467.69;5148458;27;20054;-77
2021/08/11 04:23:07;;;;;;;5.68;3.88;;;;;;;13.87;80.74;101454.91;5155916;27;20043;-76
2021/08/11 04:25:36;;;;;;;8.60;4.20;;;;;;;13.89;80.98;101470.56;5126913;27;20544;-77
2021/08/11 04:28:05;;;;;;;6.68;4.28;;;;;;;13.69;81.11;101450.38;5141881;27;20034;-79
2021/08/11 04:30:31;;;;;;;6.88;4.20;;;;;;;13.79;81.17;101469.25;5144953;27;20050;-77
2021/08/11 04:32:57;;;;;;;6.40;4.35;;;;;;;13.64;81.40;101447.94;5137120;27;20099;-78
2021/08/11 04:35:24;;;;;;;8.38;4.70;;;;;;;13.69;81.21;101453.84;5136934;27;20043;-77
2021/08/11 04:37:50;;;;;;;9.18;4.50;;;;;;;13.80;81.17;101460.47;5137527;27;20121;-77
2021/08/11 04:40:16;;;;;;;6.75;4.00;;;;;;;13.71;81.44;101456.44;5155180;27;20046;-77
2021/08/11 04:42:44;;;;;;;6.32;4.82;;;;;;;13.59;81.23;101442.84;5154862;27;20131;-77
2021/08/11 04:45:11;;;;;;;5.93;3.67;;;;;;;13.69;81.36;101458.25;5143767;27;20122;-77
2021/08/11 04:47:38;;;;;;;8.38;5.05;;;;;;;13.58;81.59;101448.19;5131505;27;20129;-78
2021/08/11 04:50:05;;;;;;;6.45;4.88;;;;;;;13.55;81.64;101443.91;5155492;27;20042;-79
2021/08/11 04:52:31;;;;;;;7.00;4.53;;;;;;;13.69;81.70;101466.13;5155055;27;20477;-77
2021/08/11 04:54:57;;;;;;;7.32;4.47;;;;;;;13.63;81.53;101464.59;5154703;27;20051;-77
2021/08/11 04:57:23;;;;;;;5.82;4.00;;;;;;;13.65;81.57;101468.00;5155175;27;20047;-78
2021/08/11 04:59:49;;;;;;;5.93;4.20;;;;;;;13.70;81.28;101466.06;5155434;27;20050;-78
2021/08/11 05:02:15;;;;;;;8.35;4.82;;;;;;;13.75;81.05;101471.13;5154592;27;20117;-78
2021/08/11 05:04:41;;;;;;;6.78;4.60;;;;;;;13.78;81.19;101457.91;5155164;27;20039;-77
2021/08/11 05:07:07;;;;;;;6.28;4.93;;;;;;;13.58;81.01;101432.44;5155264;27;20434;-78
2021/08/11 05:09:33;;;;;;;7.72;4.68;;;;;;;13.80;80.95;101469.16;5136164;27;20100;-77
2021/08/11 05:12:00;;;;;;;6.80;4.65;;;;;;;13.78;81.15;101476.28;5137918;27;20066;-77
2021/08/11 05:14:28;;;;;;;6.40;4.45;;;;;;;13.78;80.84;101463.16;5150206;27;20371;-77
2021/08/11 05:16:54;;;;;;;8.23;4.43;;;;;;;13.87;80.89;101478.53;5151065;27;20379;-74
2021/08/11 05:19:21;;;;;;;7.55;5.20;;;;;;;13.75;80.57;101458.84;5157738;27;20435;-76
2021/08/11 05:21:49;;;;;;;5.80;4.30;;;;;;;13.85;80.52;101477.72;5157745;27;20495;-77
2021/08/11 05:24:15;;;;;;;7.95;4.45;;;;;;;13.91;80.32;101476.63;5137701;27;20047;-78
2021/08/11 05:26:44;;;;;;;8.75;4.20;;;;;;;13.90;80.49;101486.28;5154625;27;20473;-78
2021/08/11 05:29:21;;;;;;;6.78;4.90;;;;;;;14.00;80.22;101491.16;5154725;27;20046;-77
2021/08/11 05:31:47;;;;;;;5.32;4.40;;;;;;;13.96;80.44;101503.53;5136333;27;20047;-78
2021/08/11 05:34:13;;;;;;;7.68;4.85;;;;;;;13.86;80.45;101489.94;5135093;28;20047;-79
2021/08/11 05:36:39;;;;;;;7.55;4.53;;;;;;;13.79;80.63;101472.72;5138299;27;20047;-79
2021/08/11 05:39:05;;;;;;;7.38;5.22;;;;;;;13.80;80.54;101468.34;5154551;27;20072;-79
2021/08/11 05:41:32;;;;;;;5.28;4.07;;;;;;;13.86;80.63;101468.09;5155302;27;20122;-80
2021/08/11 05:43:59;;;;;;;6.97;4.80;;;;;;;14.03;80.23;101493.66;5155170;27;20046;-78
2021/08/11 05:46:25;;;;;;;7.28;5.18;;;;;;;13.92;80.00;101484.44;5135082;27;20087;-78
2021/08/11 05:48:51;;;;;;;9.85;5.28;;;;;;;14.04;80.09;101498.00;5153696;27;20126;-77
2021/08/11 05:51:17;;;;;;;6.60;4.32;;;;;;;13.92;79.80;101471.31;5149825;27;20092;-76
2021/08/11 05:53:43;;;;;;;9.13;4.72;;;;;;;13.89;79.60;101455.69;5150932;27;20089;-80
2021/08/11 05:56:09;;;;;;;7.45;5.60;;;;;;;14.05;79.71;101487.44;5154100;27;20046;-77
2021/08/11 05:58:35;;;;;;;8.77;5.38;;;;;;;14.13;79.65;101495.00;5150773;27;20039;-76
2021/08/11 06:01:03;;;;;;;8.50;4.97;;;;;;;14.16;79.77;101500.13;5153125;27;20039;-76
2021/08/11 06:03:31;;;;;;;7.22;4.65;;;;;;;14.15;79.61;101495.78;5150330;27;20058;-77
2021/08/11 06:06:01;;;;;;;8.07;4.90;;;;;;;14.17;79.36;101491.34;5150855;27;20066;-80
2021/08/11 06:08:27;;;;;;;8.57;4.50;;;;;;;14.36;79.20;101507.19;5153308;27;20073;-79
2021/08/11 06:10:53;;;;;;;10.68;5.35;;;;;;;14.47;78.65;101500.66;5153231;27;20043;-79
2021/08/11 06:13:22;;;;;;;8.80;5.20;;;;;;;14.47;78.56;101496.25;5136556;27;20517;-80
2021/08/11 06:15:52;;;;;;;8.15;5.28;;;;;;;14.44;78.62;101475.38;5117790;27;20039;-80
2021/08/11 06:18:18;;;;;;;6.25;4.32;;;;;;;14.67;78.29;101491.94;5154296;27;20039;-80
2021/08/11 06:20:47;;;;;;;7.05;5.03;;;;;;;14.72;78.06;101498.72;5151567;27;20043;-76
2021/08/11 06:23:14;;;;;;;9.18;4.65;;;;;;;14.71;78.02;101504.06;5152784;27;20491;-77
2021/08/11 06:25:40;;;;;;;6.90;5.00;;;;;;;14.79;77.50;101496.66;5151804;27;20066;-77
2021/08/11 06:28:06;;;;;;;7.55;4.75;;;;;;;14.77;77.64;101498.53;5154679;27;20047;-77
2021/08/11 06:30:32;;;;;;;8.85;5.03;;;;;;;14.84;77.65;101491.22;5165979;27;20058;-78
2021/08/11 06:32:58;;;;;;;6.85;4.65;;;;;;;14.88;77.15;101495.44;5180166;27;20034;-76
2021/08/11 06:35:24;;;;;;;5.93;4.38;;;;;;;14.98;77.10;101494.09;5176267;27;20087;-77
2021/08/11 06:37:51;;;;;;;6.38;4.50;;;;;;;15.12;76.58;101495.28;5162907;27;20424;-77
2021/08/11 06:40:20;;;;;;;6.95;4.65;;;;;;;15.23;76.18;101497.41;5135906;27;20112;-78
2021/08/11 06:42:47;;;;;;;5.38;3.95;;;;;;;15.39;75.89;101498.41;5174327;27;20046;-77
2021/08/11 06:45:14;;;;;;;7.70;4.43;;;;;;;15.57;75.26;101494.09;5177398;27;20065;-78
2021/08/11 06:47:41;;;;;;;8.05;4.30;;;;;;;15.57;74.28;101483.56;5170431;27;20372;-77
2021/08/11 06:50:09;;;;;;;10.40;4.65;;;;;;;15.93;73.52;101508.25;5155142;27;20073;-77
2021/08/11 06:52:38;;;;;;;7.72;4.55;;;;;;;15.88;72.92;101507.63;5158358;27;20038;-81
2021/08/11 06:55:10;;;;;;;7.43;4.28;;;;;;;16.14;72.50;101507.22;5158554;27;20043;-78
2021/08/11 06:57:39;;;;;;;7.13;3.83;;;;;;;16.54;70.72;101512.31;5139679;27;20047;-77
2021/08/11 07:00:06;;;;;;;5.80;3.72;;;;;;;16.96;68.93;101508.41;5152278;27;20062;-78
2021/08/11 07:02:35;;;;;;;7.32;3.58;;;;;;;17.11;68.00;101512.06;5156610;27;20047;-77
2021/08/11 07:05:02;;;;;;;7.82;3.92;;;;;;;16.93;68.48;101499.81;5159556;27;20482;-78
2021/08/11 07:07:30;;;;;;;5.75;4.03;;;;;;;17.04;68.45;101520.34;5140739;27;20051;-77
2021/08/11 07:10:00;;;;;;;5.50;3.28;;;;;;;17.03;68.26;101508.09;5157307;27;20501;-76
2021/08/11 07:12:26;;;;;;;7.45;3.88;;;;;;;17.12;68.00;101518.19;5158070;27;20046;-77
2021/08/11 07:14:53;;;;;;;3.80;3.33;;;;;;;17.07;67.76;101483.28;5156372;27;20848;-76
2021/08/11 07:17:20;;;;;;;5.30;3.85;;;;;;;17.23;67.54;101507.06;5156646;27;20039;-76
2021/08/11 07:19:47;;;;;;;4.70;3.65;;;;;;;17.37;67.02;101514.22;5154914;27;20046;-77
2021/08/11 07:22:14;;;;;;;6.57;3.50;;;;;;;17.58;66.30;101518.34;5155995;27;20043;-77
2021/08/11 07:24:40;;;;;;;5.57;3.58;;;;;;;17.69;66.19;101509.00;5158401;27;20047;-76
2021/08/11 07:27:06;;;;;;;4.95;3.25;;;;;;;17.73;65.96;101498.16;5154137;27;20039;-76
2021/08/11 07:29:33;;;;;;;6.95;3.35;;;;;;;17.86;65.24;101502.78;5145108;27;20051;-76
2021/08/11 07:31:59;;;;;;;6.22;3.38;;;;;;;18.02;64.68;101490.41;5158931;27;20087;-76
2021/08/11 07:34:25;;;;;;;5.38;3.17;;;;;;;18.51;64.08;101504.38;5158161;27;20153;-76
2021/08/11 07:36:50;;;;;;;7.75;3.28;;;;;;;18.50;62.56;101507.97;5156053;27;20082;-77
2021/08/11 07:39:17;;;;;;;6.15;3.10;;;;;;;18.51;62.81;101509.66;5156849;27;20050;-77
2021/08/11 07:41:43;;;;;;;8.43;3.22;;;;;;;18.61;62.41;101510.81;5156178;27;20092;-76
2021/08/11 07:44:10;;;;;;;5.40;2.97;;;;;;;18.49;62.16;101512.41;5154771;27;20051;-78
2021/08/11 07:46:36;;;;;;;6.18;3.28;;;;;;;18.61;61.82;101505.53;5151360;27;20046;-78
2021/08/11 07:49:03;;;;;;;4.15;3.13;;;;;;;18.48;61.72;101509.84;5149522;27;20405;-78
2021/08/11 07:51:29;;;;;;;6.72;3.42;;;;;;;18.24;62.64;101521.75;5142205;27;20051;-77
2021/08/11 07:53:56;;;;;;;4.38;2.60;;;;;;;17.80;64.83;101511.88;5155153;27;20047;-77
2021/08/11 07:56:22;;;;;;;4.47;3.63;;;;;;;17.69;67.26;101538.88;5155624;27;20126;-78
2021/08/11 07:58:49;;;;;;;4.65;3.30;;;;;;;17.40;70.44;101532.53;5156965;27;20049;-81
2021/08/11 08:01:18;;;;;;;6.53;3.70;;;;;;;17.14;71.73;101529.50;5153806;27;20087;-82
2021/08/11 08:03:52;;;;;;;9.65;3.28;;;;;;;17.09;71.82;101519.19;5156062;27;20099;-81
2021/08/11 08:06:27;;;;;;;5.00;3.33;;;;;;;17.29;71.71;101522.56;5140860;27;20043;-79
2021/08/11 08:09:03;;;;;;;4.20;3.40;;;;;;;17.43;71.81;101522.69;5142443;27;20043;-77
2021/08/11 08:11:33;;;;;;;5.30;3.40;;;;;;;17.68;70.88;101510.75;5136691;27;20074;-75
2021/08/11 08:14:01;;;;;;;5.10;3.33;;;;;;;18.06;69.51;101510.44;5138115;27;20099;-78
2021/08/11 08:16:29;;;;;;;6.43;3.50;;;;;;;18.50;68.45;101511.44;5156466;27;20047;-79
2021/08/11 08:18:57;;;;;;;5.38;3.20;;;;;;;18.64;66.44;101507.13;5138640;27;20061;-80
2021/08/11 08:21:26;;;;;;;4.97;3.30;;;;;;;18.84;66.16;101490.91;5156798;27;20042;-77
2021/08/11 08:23:55;;;;;;;6.18;3.20;;;;;;;18.97;64.68;101511.38;5146745;27;20100;-79
2021/08/11 08:26:23;;;;;;;4.60;3.00;;;;;;;19.26;64.03;101504.31;5135772;27;20489;-78
2021/08/11 08:28:50;;;;;;;4.53;3.03;;;;;;;19.39;63.04;101501.72;5136227;27;20051;-77
2021/08/11 08:31:16;;;;;;;4.57;2.65;;;;;;;19.42;62.07;101512.16;5116964;27;20047;-77
2021/08/11 08:33:42;;;;;;;5.70;3.28;;;;;;;18.96;62.65;101507.06;5135076;27;20039;-77
2021/08/11 08:36:11;;;;;;;5.90;3.10;;;;;;;18.75;63.02;101493.28;5116085;27;20444;-76
2021/08/11 08:38:37;;;;;;;3.80;3.03;;;;;;;18.64;63.72;101509.78;5135296;27;20039;-77
2021/08/11 08:41:04;;;;;;;5.32;3.00;;;;;;;18.86;63.55;101506.72;5125392;27;20047;-79
2021/08/11 08:43:30;;;;;;;5.28;3.30;;;;;;;19.03;62.83;101500.44;5115566;27;20043;-76
2021/08/11 08:45:56;;;;;;;5.75;2.90;;;;;;;19.19;62.18;101497.69;5116962;27;20138;-77
2021/08/11 08:48:23;;;;;;;4.38;3.70;;;;;;;19.40;61.91;101503.44;5134098;27;20050;-76
2021/08/11 08:50:50;;;;;;;5.63;3.50;;;;;;;19.25;61.08;101460.25;5134746;27;20047;-78
2021/08/11 08:53:23;;;;;;;6.45;3.03;;;;;;;19.17;61.93;101496.94;5117777;27;20399;-79
2021/08/11 08:55:52;;;;;;;5.63;3.37;;;;;;;19.57;61.09;101496.25;5136646;27;20108;-78
2021/08/11 08:58:19;;;;;;;5.07;2.95;;;;;;;19.36;61.46;101489.53;5139401;27;20373;-80
2021/08/11 09:00:47;;;;;;;4.35;3.25;;;;;;;19.55;61.13;101492.84;5144729;27;20047;-81
2021/08/11 09:03:14;;;;;;;5.03;3.50;;;;;;;19.60;61.32;101461.59;5150191;27;20059;-77
2021/08/11 09:05:41;;;;;;;5.57;2.85;;;;;;;19.95;60.38;101466.44;5158009;27;20058;-77
2021/08/11 09:08:08;;;;;;;6.45;3.88;;;;;;;20.09;59.91;101477.00;5143873;27;20134;-79
2021/08/11 09:10:39;;;;;;;7.00;2.95;;;;;;;20.38;58.47;101476.00;5141809;27;20062;-79
2021/08/11 09:13:22;;;;;;;6.03;3.58;;;;;;;20.48;58.50;101466.44;5137983;27;20153;-80
2021/08/11 09:15:51;;;;;;;6.70;3.53;;;;;;;20.29;59.48;101478.31;5116950;27;20047;-80
2021/08/11 09:18:24;;;;;;;6.40;3.30;;;;;;;20.27;60.01;101479.34;5112732;28;20044;-80
2021/08/11 09:21:12;;;;;;;5.60;3.00;;;;;;;20.10;59.76;101469.88;5114755;28;20118;-80
2021/08/11 09:23:46;;;;;;;9.73;3.00;;;;;;;20.37;59.78;101475.13;5114837;28;20182;-80
2021/08/11 09:26:15;;;;;;;6.30;2.90;;;;;;;20.39;59.77;101478.53;5108137;28;20058;-80
2021/08/11 09:28:44;;;;;;;3.80;2.65;;;;;;;20.65;59.04;101475.91;5150567;27;20072;-78
2021/08/11 09:31:32;;;;;;;5.78;2.72;;;;;;;20.87;58.60;101471.81;5152869;27;20090;-79
2021/08/11 09:34:01;;;;;;;6.88;3.22;;;;;;;20.74;59.12;101462.06;5119351;28;20047;-78
2021/08/11 09:36:40;;;;;;;4.82;2.83;;;;;;;20.83;58.61;101463.22;5134070;28;20491;-78
2021/08/11 09:39:06;;;;;;;3.65;2.33;;;;;;;21.14;58.51;101468.16;5135540;28;20059;-80
2021/08/11 09:41:32;;;;;;;4.53;2.92;;;;;;;21.31;58.23;101478.44;5135090;28;20077;-81
2021/08/11 09:44:11;;;;;;;4.50;2.35;;;;;;;21.52;57.89;101475.19;5134811;28;20043;-82
2021/08/11 09:46:41;;;;;;;3.78;2.63;;;;;;;21.93;56.52;101467.84;5134714;28;20039;-79
2021/08/11 09:49:15;;;;;;;5.70;2.63;;;;;;;22.26;55.01;101453.00;5135011;28;20070;-79
2021/08/11 09:51:59;;;;;;;5.68;3.15;;;;;;;22.36;54.56;101468.13;5116998;28;20047;-81
2021/08/11 09:54:28;;;;;;;5.18;2.60;;;;;;;22.46;54.84;101454.16;5134973;27;20413;-80
2021/08/11 09:56:55;;;;;;;9.85;2.80;;;;;;;22.99;53.90;101466.91;5135077;28;20407;-80
2021/08/11 09:59:21;;;;;;;6.88;2.60;;;;;;;22.55;54.18;101464.09;5139660;28;20057;-79
2021/08/11 10:01:47;;;;;;;5.05;2.60;;;;;;;22.17;55.20;101446.56;5142177;28;20071;-81
2021/08/11 10:04:14;;;;;;;5.20;3.17;;;;;;;21.64;57.18;101457.56;5141570;28;20129;-78
2021/08/11 10:06:42;;;;;;;4.10;2.80;;;;;;;21.23;58.81;101470.19;5145234;27;20049;-80
2021/08/11 10:09:17;;;;;;;5.28;2.92;;;;;;;21.23;59.12;101459.56;5139830;27;20047;-79
2021/08/11 10:11:54;;;;;;;4.28;2.78;;;;;;;21.32;58.51;101424.38;5139012;27;20053;-80
2021/08/11 10:14:29;;;;;;;4.25;2.50;;;;;;;21.53;58.05;101445.00;5137359;27;20100;-79
2021/08/11 10:16:58;;;;;;;4.95;2.40;;;;;;;21.84;57.69;101456.94;5136924;27;20039;-79
2021/08/11 10:19:29;;;;;;;9.90;2.72;;;;;;;22.15;55.20;101469.75;5137518;27;20051;-81
2021/08/11 10:21:57;;;;;;;4.45;2.30;;;;;;;21.84;56.01;101464.91;5138793;27;20044;-82
2021/08/11 10:24:24;;;;;;;3.42;2.30;;;;;;;21.91;55.75;101473.28;5134235;27;20083;-81
2021/08/11 10:26:53;;;;;;;5.15;2.55;;;;;;;21.96;55.44;101465.81;5159464;27;20062;-81
2021/08/11 10:29:19;;;;;;;5.50;2.58;;;;;;;22.08;55.19;101448.06;5158800;27;20042;-81
2021/08/11 10:31:47;;;;;;;4.57;2.83;;;;;;;22.38;54.96;101466.22;5140522;27;20043;-81
2021/08/11 10:34:17;;;;;;;5.07;2.75;;;;;;;22.85;53.90;101458.19;5154055;27;20130;-80
2021/08/11 10:36:46;;;;;;;6.28;2.95;;;;;;;22.98;53.51;101460.72;5146097;27;20049;-81
2021/08/11 10:39:16;;;;;;;4.57;3.00;;;;;;;23.13;52.30;101453.34;5149715;27;20043;-79
2021/08/11 10:41:44;;;;;;;6.47;2.88;;;;;;;23.33;52.50;101451.78;5137537;27;20047;-79
2021/08/11 10:44:21;;;;;;;5.35;3.25;;;;;;;23.53;51.18;101448.47;5119496;27;20039;-80
2021/08/11 10:46:59;;;;;;;4.13;3.00;;;;;;;23.43;51.06;101454.53;5155179;27;20546;-79
2021/08/11 10:49:30;;;;;;;6.32;3.03;;;;;;;23.24;52.00;101457.00;5157216;27;20103;-81
2021/08/11 10:52:13;;;;;;;6.32;3.42;;;;;;;23.31;52.43;101466.19;5133236;27;20049;-81
2021/08/11 10:54:59;;;;;;;4.10;3.42;;;;;;;23.06;52.79;101462.81;5159217;27;20076;-79
2021/08/11 10:57:35;;;;;;;4.97;3.33;;;;;;;22.49;54.24;101460.06;5157555;27;20045;-80
2021/08/11 11:00:20;;;;;;;4.07;2.75;;;;;;;22.67;54.10;101446.34;5157736;27;20171;-80
2021/08/11 11:02:48;;;;;;;5.82;3.13;;;;;;;22.78;53.48;101433.03;5138944;27;20047;-81
2021/08/11 11:05:21;;;;;;;4.55;2.90;;;;;;;22.85;53.49;101458.19;5137614;27;20111;-79
2021/08/11 11:08:16;;;;;;;6.05;3.08;;;;;;;22.29;54.13;101440.31;5157418;27;20042;-79
2021/08/11 11:10:45;;;;;;;;;;;;;;;22.16;55.54;101458.16;5108513;27;20050;-79
2021/08/11 11:13:31;;;;;;;4.05;2.97;;;;;;;22.04;56.11;101455.44;5151383;27;20382;-78
2021/08/11 11:16:02;;;;;;;4.97;3.63;;;;;;;21.97;55.57;101443.59;5158790;27;20046;-79
2021/08/11 11:18:29;;;;;;;4.18;2.92;;;;;;;22.13;55.54;101451.25;5156746;27;20054;-77
2021/08/11 11:20:59;;;;;;;5.03;3.25;;;;;;;21.99;55.82;101451.44;5137719;27;20043;-78
2021/08/11 11:23:36;;;;;;;5.65;3.28;;;;;;;22.09;56.08;101431.16;5155093;27;20051;-77
2021/08/11 11:26:05;;;;;;;4.15;2.75;;;;;;;22.77;54.75;101449.97;5143978;27;20049;-79
2021/08/11 11:29:01;;;;;;;5.65;2.70;;;;;;;23.36;52.62;101445.34;5143716;27;20364;-79
2021/08/11 11:31:48;;;;;;;4.95;2.60;;;;;;;23.72;51.57;101455.81;5147136;27;20031;-79
2021/08/11 11:34:27;;;;;;;4.65;2.60;;;;;;;23.78;48.71;101445.50;5155998;27;20058;-80